createdAt,value
2022-10-22T00:00:27.540Z,46.77
2022-10-22T00:01:27.526Z,43.91
2022-10-22T00:02:27.561Z,45.21
2022-10-22T00:03:27.529Z,46.14
2022-10-22T00:04:31.455Z,46.02
2022-10-22T00:05:28.511Z,47.44
2022-10-22T00:06:27.529Z,45.61
2022-10-22T00:07:27.482Z,44.97
2022-10-22T00:08:27.487Z,45.11
2022-10-22T00:09:27.492Z,44.42
2022-10-22T00:10:27.465Z,44.40
2022-10-22T00:11:27.462Z,43.37
2022-10-22T00:12:27.453Z,44.37
2022-10-22T00:13:27.451Z,44.56
2022-10-22T00:14:27.454Z,44.99
2022-10-22T00:15:27.428Z,49.30
2022-10-22T00:16:27.429Z,50.18
2022-10-22T00:17:27.429Z,44.77
2022-10-22T00:18:27.413Z,44.82
2022-10-22T00:19:27.641Z,45.62
2022-10-22T00:20:27.397Z,44.85
2022-10-22T00:21:27.385Z,44.27
2022-10-22T00:22:27.420Z,46.60
2022-10-22T00:23:27.377Z,44.93
2022-10-22T00:24:27.382Z,44.18
2022-10-22T00:25:27.356Z,45.57
2022-10-22T00:26:27.363Z,46.28
2022-10-22T00:27:27.345Z,44.19
2022-10-22T00:28:27.345Z,45.62
2022-10-22T00:29:27.340Z,43.73
2022-10-22T00:30:27.342Z,46.50
2022-10-22T00:31:27.334Z,46.89
2022-10-22T00:32:27.322Z,46.32
2022-10-22T00:33:27.305Z,44.00
2022-10-22T00:34:27.304Z,43.79
2022-10-22T00:35:27.849Z,45.82
2022-10-22T00:36:27.820Z,45.62
2022-10-22T00:37:27.279Z,46.78
2022-10-22T00:38:27.292Z,45.71
2022-10-22T00:39:27.259Z,46.34
2022-10-22T00:40:27.261Z,46.65
2022-10-22T00:41:28.070Z,44.58
2022-10-22T00:42:27.243Z,47.12
2022-10-22T00:43:27.236Z,45.07
2022-10-22T00:44:27.228Z,46.70
2022-10-22T00:45:27.259Z,48.39
2022-10-22T00:46:27.237Z,45.84
2022-10-22T00:47:27.207Z,44.43
2022-10-22T00:48:27.207Z,45.66
2022-10-22T00:49:27.198Z,46.46
2022-10-22T00:50:27.187Z,45.65
2022-10-22T00:51:27.198Z,43.45
2022-10-22T00:52:27.169Z,43.19
2022-10-22T00:53:27.159Z,44.24
2022-10-22T00:54:27.186Z,43.15
2022-10-22T00:55:27.165Z,46.79
2022-10-22T00:56:27.149Z,46.52
2022-10-22T00:57:27.149Z,47.12
2022-10-22T00:58:27.141Z,47.28
2022-10-22T00:59:27.140Z,47.27
2022-10-22T01:00:27.112Z,45.83
2022-10-22T01:01:27.123Z,44.75
2022-10-22T01:02:27.106Z,44.52
2022-10-22T01:03:27.092Z,44.76
2022-10-22T01:04:27.094Z,44.80
2022-10-22T01:05:27.084Z,44.11
2022-10-22T01:06:27.067Z,43.76
2022-10-22T01:07:27.069Z,45.69
2022-10-22T01:08:27.059Z,46.41
2022-10-22T01:09:27.049Z,46.33
2022-10-22T01:10:27.073Z,46.37
2022-10-22T01:11:27.718Z,44.60
2022-10-22T01:12:27.026Z,41.46
2022-10-22T01:13:27.067Z,42.90
2022-10-22T01:14:27.022Z,42.35
2022-10-22T01:15:27.005Z,55.02
2022-10-22T01:16:27.020Z,49.94
2022-10-22T01:17:27.022Z,45.08
2022-10-22T01:18:26.984Z,43.93
2022-10-22T01:19:26.981Z,43.80
2022-10-22T01:20:26.971Z,44.68
2022-10-22T01:21:26.981Z,43.28
2022-10-22T01:22:26.978Z,42.87
2022-10-22T01:23:26.945Z,44.00
2022-10-22T01:24:26.950Z,42.51
2022-10-22T01:25:26.937Z,42.69
2022-10-22T01:26:26.958Z,42.59
2022-10-22T01:27:26.920Z,42.49
2022-10-22T01:28:26.924Z,42.97
2022-10-22T01:29:26.907Z,40.78
2022-10-22T01:30:26.894Z,42.39
2022-10-22T01:31:26.894Z,42.68
2022-10-22T01:32:26.882Z,43.52
2022-10-22T01:33:26.891Z,47.42
2022-10-22T01:34:26.873Z,44.22
2022-10-22T01:35:26.914Z,43.64
2022-10-22T01:36:26.861Z,43.96
2022-10-22T01:37:26.847Z,42.50
2022-10-22T01:38:26.856Z,42.33
2022-10-22T01:39:26.830Z,43.08
2022-10-22T01:40:26.851Z,44.03
2022-10-22T01:41:26.823Z,44.45
2022-10-22T01:42:26.834Z,43.92
2022-10-22T01:43:26.801Z,44.36
2022-10-22T01:44:26.903Z,43.56
2022-10-22T01:45:26.799Z,45.71
2022-10-22T01:46:26.778Z,44.08
2022-10-22T01:47:26.794Z,43.00
2022-10-22T01:48:26.774Z,43.27
2022-10-22T01:49:26.761Z,43.27
2022-10-22T01:50:27.314Z,42.26
2022-10-22T01:51:26.750Z,44.64
2022-10-22T01:52:26.739Z,43.50
2022-10-22T01:53:26.745Z,43.11
2022-10-22T01:54:26.727Z,45.63
2022-10-22T01:55:27.283Z,46.23
2022-10-22T01:56:26.735Z,43.44
2022-10-22T01:57:26.712Z,44.03
2022-10-22T01:58:26.731Z,44.12
2022-10-22T01:59:26.693Z,42.49
2022-10-22T02:00:26.736Z,44.91
2022-10-22T02:01:26.864Z,42.42
2022-10-22T02:02:26.676Z,44.29
2022-10-22T02:03:26.696Z,41.13
2022-10-22T02:04:26.663Z,43.42
2022-10-22T02:05:26.649Z,43.89
2022-10-22T02:06:27.114Z,44.54
2022-10-22T02:07:26.638Z,42.38
2022-10-22T02:08:26.630Z,44.84
2022-10-22T02:09:26.627Z,42.85
2022-10-22T02:10:26.637Z,44.11
2022-10-22T02:11:26.612Z,43.86
2022-10-22T02:12:26.603Z,43.52
2022-10-22T02:13:26.589Z,42.56
2022-10-22T02:14:26.602Z,42.17
2022-10-22T02:15:27.249Z,43.03
2022-10-22T02:16:26.574Z,44.79
2022-10-22T02:17:26.563Z,45.18
2022-10-22T02:18:26.558Z,44.16
2022-10-22T02:19:26.543Z,43.40
2022-10-22T02:20:26.543Z,43.32
2022-10-22T02:21:26.542Z,46.25
2022-10-22T02:22:26.524Z,50.10
2022-10-22T02:23:26.523Z,45.63
2022-10-22T02:24:26.535Z,46.41
2022-10-22T02:25:26.510Z,46.70
2022-10-22T02:26:26.932Z,56.39
2022-10-22T02:27:27.169Z,49.51
2022-10-22T02:28:26.480Z,44.46
2022-10-22T02:29:26.499Z,44.32
2022-10-22T02:30:26.498Z,45.49
2022-10-22T02:31:26.461Z,45.02
2022-10-22T02:32:26.458Z,43.37
2022-10-22T02:33:26.454Z,44.04
2022-10-22T02:34:26.641Z,45.37
2022-10-22T02:35:26.448Z,44.10
2022-10-22T02:36:26.442Z,45.10
2022-10-22T02:37:26.444Z,45.19
2022-10-22T02:38:26.418Z,43.71
2022-10-22T02:39:26.429Z,43.04
2022-10-22T02:40:26.418Z,43.76
2022-10-22T02:41:26.453Z,45.21
2022-10-22T02:42:26.411Z,52.45
2022-10-22T02:43:26.388Z,44.36
2022-10-22T02:44:26.378Z,43.13
2022-10-22T02:45:26.370Z,46.61
2022-10-22T02:46:26.384Z,45.18
2022-10-22T02:47:26.361Z,45.55
2022-10-22T02:48:26.362Z,52.05
2022-10-22T02:49:26.784Z,49.52
2022-10-22T02:50:26.343Z,46.21
2022-10-22T02:51:26.328Z,48.65
2022-10-22T02:52:26.320Z,47.25
2022-10-22T02:53:26.318Z,47.51
2022-10-22T02:54:26.791Z,48.19
2022-10-22T02:55:26.314Z,49.23
2022-10-22T02:56:26.380Z,48.30
2022-10-22T02:57:26.289Z,47.58
2022-10-22T02:58:26.286Z,48.80
2022-10-22T02:59:26.302Z,49.63
2022-10-22T03:00:26.339Z,45.44
2022-10-22T03:01:26.291Z,45.68
2022-10-22T03:02:26.272Z,44.85
2022-10-22T03:03:26.252Z,45.73
2022-10-22T03:04:26.247Z,45.95
2022-10-22T03:05:26.226Z,46.39
2022-10-22T03:07:26.220Z,47.07
2022-10-22T03:08:26.215Z,46.47
2022-10-22T03:09:26.204Z,47.69
2022-10-22T03:10:26.197Z,48.63
2022-10-22T03:11:26.184Z,47.67
2022-10-22T03:12:26.199Z,48.01
2022-10-22T03:13:26.171Z,47.51
2022-10-22T03:14:26.184Z,48.47
2022-10-22T03:15:29.201Z,48.97
2022-10-22T03:16:26.149Z,49.03
2022-10-22T03:17:26.857Z,46.80
2022-10-22T03:18:26.167Z,47.49
2022-10-22T03:19:26.136Z,46.56
2022-10-22T03:20:26.125Z,47.86
2022-10-22T03:21:26.130Z,47.87
2022-10-22T03:22:26.521Z,48.87
2022-10-22T03:23:26.106Z,47.02
2022-10-22T03:24:26.101Z,46.61
2022-10-22T03:25:26.091Z,46.70
2022-10-22T03:26:26.099Z,52.66
2022-10-22T03:27:26.089Z,46.57
2022-10-22T03:28:26.650Z,46.85
2022-10-22T03:29:26.288Z,46.79
2022-10-22T03:30:26.055Z,46.75
2022-10-22T03:31:26.060Z,47.14
2022-10-22T03:32:26.075Z,45.23
2022-10-22T03:33:26.029Z,45.59
2022-10-22T03:34:26.046Z,49.44
2022-10-22T03:35:26.024Z,48.03
2022-10-22T03:36:26.015Z,49.29
2022-10-22T03:37:26.006Z,49.06
2022-10-22T03:38:26.000Z,49.10
2022-10-22T03:39:26.009Z,48.34
2022-10-22T03:40:25.975Z,47.39
2022-10-22T03:41:25.985Z,48.71
2022-10-22T03:42:25.980Z,47.28
2022-10-22T03:43:26.003Z,49.07
2022-10-22T03:44:25.958Z,48.87
2022-10-22T03:45:26.014Z,48.52
2022-10-22T03:46:26.342Z,50.77
2022-10-22T03:47:25.937Z,50.12
2022-10-22T03:48:25.934Z,50.68
2022-10-22T03:49:25.924Z,49.68
2022-10-22T03:50:25.937Z,47.04
2022-10-22T03:51:25.904Z,47.32
2022-10-22T03:52:25.932Z,49.54
2022-10-22T03:53:25.899Z,50.04
2022-10-22T03:54:25.963Z,48.45
2022-10-22T03:55:25.884Z,49.27
2022-10-22T03:56:25.873Z,47.06
2022-10-22T03:57:25.866Z,48.84
2022-10-22T03:58:25.858Z,48.27
2022-10-22T03:59:25.855Z,49.04
2022-10-22T04:00:25.854Z,49.42
2022-10-22T04:01:25.886Z,48.99
2022-10-22T04:02:25.823Z,48.78
2022-10-22T04:03:25.826Z,49.02
2022-10-22T04:04:25.829Z,49.54
2022-10-22T04:05:25.844Z,49.54
2022-10-22T04:06:25.851Z,48.94
2022-10-22T04:07:25.792Z,48.29
2022-10-22T04:08:25.804Z,48.71
2022-10-22T04:09:25.772Z,48.18
2022-10-22T04:10:25.769Z,49.09
2022-10-22T04:11:26.031Z,48.18
2022-10-22T04:12:25.752Z,46.76
2022-10-22T04:13:25.764Z,49.46
2022-10-22T04:14:25.749Z,48.68
2022-10-22T04:15:25.738Z,46.07
2022-10-22T04:16:27.589Z,47.82
2022-10-22T04:17:25.717Z,49.50
2022-10-22T04:18:25.719Z,49.49
2022-10-22T04:19:25.707Z,48.58
2022-10-22T04:20:25.695Z,49.95
2022-10-22T04:21:25.731Z,60.41
2022-10-22T04:22:25.727Z,50.49
2022-10-22T04:23:25.676Z,48.89
2022-10-22T04:24:25.672Z,46.59
2022-10-22T04:25:25.671Z,46.30
2022-10-22T04:26:26.203Z,49.58
2022-10-22T04:27:25.653Z,48.83
2022-10-22T04:28:25.653Z,50.48
2022-10-22T04:29:25.648Z,50.14
2022-10-22T04:30:25.629Z,50.18
2022-10-22T04:31:25.616Z,50.98
2022-10-22T04:32:25.720Z,49.84
2022-10-22T04:33:25.609Z,49.08
2022-10-22T04:34:25.607Z,47.82
2022-10-22T04:36:25.589Z,49.36
2022-10-22T04:37:25.591Z,50.57
2022-10-22T04:38:25.593Z,53.41
2022-10-22T04:39:25.650Z,48.73
2022-10-22T04:40:25.594Z,49.05
2022-10-22T04:41:25.554Z,48.95
2022-10-22T04:42:25.554Z,49.90
2022-10-22T04:43:25.532Z,49.51
2022-10-22T04:44:25.526Z,48.25
2022-10-22T04:45:25.537Z,50.45
2022-10-22T04:46:26.059Z,49.12
2022-10-22T04:47:25.511Z,49.18
2022-10-22T04:48:25.557Z,49.49
2022-10-22T04:49:25.496Z,50.25
2022-10-22T04:50:25.484Z,50.79
2022-10-22T04:51:25.473Z,49.64
2022-10-22T04:52:25.485Z,49.25
2022-10-22T04:53:25.466Z,48.88
2022-10-22T04:54:29.039Z,47.75
2022-10-22T04:55:26.537Z,53.86
2022-10-22T04:56:25.444Z,49.32
2022-10-22T04:57:25.440Z,48.20
2022-10-22T04:58:25.441Z,48.01
2022-10-22T04:59:25.430Z,48.99
2022-10-22T05:00:25.410Z,49.83
2022-10-22T05:01:25.470Z,50.01
2022-10-22T05:02:25.420Z,50.26
2022-10-22T05:03:25.428Z,51.17
2022-10-22T05:04:25.386Z,50.89
2022-10-22T05:05:25.385Z,50.29
2022-10-22T05:06:25.372Z,48.99
2022-10-22T05:07:25.370Z,50.54
2022-10-22T05:08:25.404Z,50.50
2022-10-22T05:09:25.367Z,50.78
2022-10-22T05:10:25.360Z,48.58
2022-10-22T05:11:25.333Z,51.00
2022-10-22T05:12:25.338Z,57.51
2022-10-22T05:13:25.375Z,51.51
2022-10-22T05:14:25.333Z,49.13
2022-10-22T05:15:25.314Z,49.27
2022-10-22T05:16:25.298Z,48.63
2022-10-22T05:17:25.295Z,49.15
2022-10-22T05:18:25.297Z,50.93
2022-10-22T05:19:25.284Z,53.93
2022-10-22T05:20:25.288Z,49.23
2022-10-22T05:21:25.264Z,50.94
2022-10-22T05:22:25.259Z,49.61
2022-10-22T05:23:25.269Z,47.75
2022-10-22T05:24:25.237Z,49.98
2022-10-22T05:25:25.231Z,50.52
2022-10-22T05:26:25.267Z,53.19
2022-10-22T05:27:25.266Z,51.70
2022-10-22T05:28:25.238Z,50.00
2022-10-22T05:29:25.223Z,50.97
2022-10-22T05:30:25.194Z,48.21
2022-10-22T05:31:25.204Z,49.22
2022-10-22T05:32:25.183Z,50.18
2022-10-22T05:33:25.170Z,47.63
2022-10-22T05:34:25.189Z,49.39
2022-10-22T05:35:25.221Z,48.87
2022-10-22T05:36:25.161Z,47.84
2022-10-22T05:37:25.152Z,47.99
2022-10-22T05:38:25.133Z,48.74
2022-10-22T05:39:25.129Z,48.35
2022-10-22T05:40:31.192Z,47.72
2022-10-22T05:41:26.128Z,46.21
2022-10-22T05:42:25.129Z,47.34
2022-10-22T05:43:25.140Z,48.40
2022-10-22T05:44:25.124Z,48.41
2022-10-22T05:45:25.096Z,46.80
2022-10-22T05:46:25.213Z,48.65
2022-10-22T05:47:25.081Z,47.04
2022-10-22T05:48:25.143Z,47.73
2022-10-22T05:49:25.066Z,56.00
2022-10-22T05:50:25.051Z,52.15
2022-10-22T05:51:25.081Z,47.92
2022-10-22T05:52:25.042Z,47.85
2022-10-22T05:53:25.049Z,50.63
2022-10-22T05:54:25.029Z,51.38
2022-10-22T05:55:25.022Z,49.48
2022-10-22T05:56:25.079Z,49.11
2022-10-22T05:57:25.089Z,49.44
2022-10-22T05:58:25.023Z,47.90
2022-10-22T05:59:24.998Z,49.24
2022-10-22T06:00:24.980Z,49.88
2022-10-22T06:01:24.984Z,53.83
2022-10-22T06:02:25.035Z,53.27
2022-10-22T06:03:24.956Z,51.49
2022-10-22T06:04:24.962Z,49.00
2022-10-22T06:05:24.955Z,48.52
2022-10-22T06:06:24.955Z,49.04
2022-10-22T06:07:29.849Z,47.20
2022-10-22T06:08:24.920Z,48.36
2022-10-22T06:09:25.267Z,48.60
2022-10-22T06:10:24.910Z,47.71
2022-10-22T06:11:24.899Z,49.97
2022-10-22T06:12:24.914Z,49.67
2022-10-22T06:13:24.890Z,50.25
2022-10-22T06:14:24.921Z,49.98
2022-10-22T06:15:24.881Z,52.10
2022-10-22T06:16:24.864Z,51.29
2022-10-22T06:17:25.496Z,48.80
2022-10-22T06:18:24.852Z,50.06
2022-10-22T06:19:25.667Z,51.92
2022-10-22T06:20:24.847Z,51.97
2022-10-22T06:21:24.846Z,50.84
2022-10-22T06:22:24.836Z,56.28
2022-10-22T06:23:24.830Z,62.43
2022-10-22T06:24:24.825Z,57.86
2022-10-22T06:25:24.815Z,52.97
2022-10-22T06:26:25.365Z,51.77
2022-10-22T06:27:24.791Z,51.91
2022-10-22T06:29:24.993Z,52.37
2022-10-22T06:30:24.802Z,51.78
2022-10-22T06:31:24.781Z,50.98
2022-10-22T06:32:24.829Z,50.82
2022-10-22T06:33:24.748Z,52.24
2022-10-22T06:34:24.747Z,53.16
2022-10-22T06:35:24.740Z,55.01
2022-10-22T06:36:24.735Z,52.17
2022-10-22T06:37:24.729Z,51.54
2022-10-22T06:38:24.714Z,53.21
2022-10-22T06:39:24.710Z,53.62
2022-10-22T06:40:24.704Z,53.12
2022-10-22T06:41:28.578Z,52.33
2022-10-22T06:42:25.691Z,50.38
2022-10-22T06:43:25.186Z,58.57
2022-10-22T06:44:24.671Z,56.17
2022-10-22T06:45:24.666Z,51.19
2022-10-22T06:46:24.685Z,53.68
2022-10-22T06:47:24.690Z,53.07
2022-10-22T06:48:24.639Z,53.55
2022-10-22T06:49:24.730Z,50.99
2022-10-22T06:50:24.631Z,52.54
2022-10-22T06:51:24.640Z,51.04
2022-10-22T06:52:24.620Z,53.62
2022-10-22T06:53:24.630Z,51.44
2022-10-22T06:54:24.617Z,51.58
2022-10-22T06:55:24.608Z,51.15
2022-10-22T06:56:24.600Z,51.34
2022-10-22T06:57:24.600Z,54.17
2022-10-22T06:58:24.572Z,51.62
2022-10-22T06:59:24.566Z,53.62
2022-10-22T07:00:24.666Z,55.21
2022-10-22T07:01:24.642Z,52.80
2022-10-22T07:02:24.573Z,53.84
2022-10-22T07:03:24.540Z,52.90
2022-10-22T07:04:24.551Z,54.28
2022-10-22T07:05:24.521Z,53.11
2022-10-22T07:06:24.529Z,52.64
2022-10-22T07:07:24.620Z,54.60
2022-10-22T07:08:24.518Z,53.59
2022-10-22T07:09:24.505Z,52.84
2022-10-22T07:10:27.184Z,49.81
2022-10-22T07:11:25.836Z,51.59
2022-10-22T07:12:24.492Z,52.24
2022-10-22T07:13:24.465Z,52.69
2022-10-22T07:14:24.470Z,54.00
2022-10-22T07:15:24.459Z,54.41
2022-10-22T07:16:28.176Z,52.76
2022-10-22T07:17:25.443Z,58.17
2022-10-22T07:18:24.458Z,52.95
2022-10-22T07:19:24.427Z,53.73
2022-10-22T07:20:24.550Z,55.02
2022-10-22T07:21:24.436Z,53.79
2022-10-22T07:22:24.408Z,53.77
2022-10-22T07:23:24.414Z,54.29
2022-10-22T07:24:24.713Z,54.38
2022-10-22T07:25:24.383Z,52.21
2022-10-22T07:26:24.386Z,52.73
2022-10-22T07:27:25.785Z,52.71
2022-10-22T07:28:24.363Z,52.38
2022-10-22T07:29:24.352Z,52.29
2022-10-22T07:30:24.358Z,53.76
2022-10-22T07:31:24.343Z,52.75
2022-10-22T07:32:25.019Z,52.52
2022-10-22T07:33:24.367Z,54.15
2022-10-22T07:34:24.345Z,53.36
2022-10-22T07:35:24.308Z,52.68
2022-10-22T07:36:24.352Z,52.45
2022-10-22T07:37:24.417Z,50.40
2022-10-22T07:38:24.293Z,51.08
2022-10-22T07:39:24.292Z,52.65
2022-10-22T07:40:24.279Z,56.05
2022-10-22T07:41:24.295Z,51.51
2022-10-22T07:42:24.291Z,52.04
2022-10-22T07:43:24.255Z,51.48
2022-10-22T07:44:24.373Z,50.65
2022-10-22T07:45:24.243Z,50.93
2022-10-22T07:46:24.236Z,51.03
2022-10-22T07:47:24.231Z,51.46
2022-10-22T07:48:24.256Z,55.76
2022-10-22T07:49:24.265Z,50.34
2022-10-22T07:50:24.222Z,53.41
2022-10-22T07:51:24.267Z,53.16
2022-10-22T07:52:24.187Z,53.03
2022-10-22T07:53:24.186Z,52.70
2022-10-22T07:54:24.181Z,52.61
2022-10-22T07:55:24.171Z,52.76
2022-10-22T07:56:24.184Z,53.49
2022-10-22T07:57:24.155Z,53.33
2022-10-22T07:58:24.145Z,53.47
2022-10-22T07:59:24.146Z,56.76
2022-10-22T08:00:25.346Z,56.17
2022-10-22T08:01:24.182Z,54.77
2022-10-22T08:02:24.129Z,56.57
2022-10-22T08:03:24.113Z,60.59
2022-10-22T08:04:24.105Z,55.77
2022-10-22T08:05:24.105Z,55.37
2022-10-22T08:06:24.135Z,55.16
2022-10-22T08:07:24.084Z,54.10
2022-10-22T08:08:27.122Z,53.53
2022-10-22T08:09:25.065Z,55.48
2022-10-22T08:10:24.267Z,56.73
2022-10-22T08:11:24.057Z,54.99
2022-10-22T08:12:24.066Z,54.75
2022-10-22T08:13:24.061Z,56.09
2022-10-22T08:14:24.058Z,59.10
2022-10-22T08:15:24.027Z,61.61
2022-10-22T08:16:24.040Z,55.19
2022-10-22T08:17:24.010Z,53.10
2022-10-22T08:18:24.006Z,55.14
2022-10-22T08:19:24.034Z,58.55
2022-10-22T08:20:23.991Z,54.42
2022-10-22T08:21:23.993Z,51.70
2022-10-22T08:22:24.003Z,50.36
2022-10-22T08:23:26.178Z,49.38
2022-10-22T08:24:23.970Z,49.87
2022-10-22T08:25:23.967Z,51.39
2022-10-22T08:26:23.952Z,52.62
2022-10-22T08:27:23.967Z,52.67
2022-10-22T08:28:23.949Z,51.24
2022-10-22T08:29:23.961Z,51.70
2022-10-22T08:30:23.929Z,51.68
2022-10-22T08:31:23.915Z,52.80
2022-10-22T08:32:24.425Z,53.78
2022-10-22T08:33:23.949Z,51.28
2022-10-22T08:34:23.890Z,51.73
2022-10-22T08:35:23.920Z,52.34
2022-10-22T08:36:23.886Z,52.32
2022-10-22T08:37:23.872Z,53.26
2022-10-22T08:38:23.901Z,55.63
2022-10-22T08:39:23.901Z,54.38
2022-10-22T08:40:23.850Z,51.78
2022-10-22T08:41:24.072Z,54.94
2022-10-22T08:42:23.858Z,51.46
2022-10-22T08:43:23.853Z,51.90
2022-10-22T08:44:23.858Z,53.34
2022-10-22T08:45:24.485Z,53.86
2022-10-22T08:46:23.816Z,54.82
2022-10-22T08:47:23.829Z,51.46
2022-10-22T08:48:23.793Z,52.09
2022-10-22T08:49:24.220Z,52.43
2022-10-22T08:50:23.794Z,51.47
2022-10-22T08:51:23.779Z,52.07
2022-10-22T08:52:23.763Z,50.19
2022-10-22T08:53:23.802Z,51.25
2022-10-22T08:54:23.793Z,50.19
2022-10-22T08:55:23.753Z,50.85
2022-10-22T08:56:23.746Z,52.30
2022-10-22T08:57:23.872Z,51.48
2022-10-22T08:58:23.724Z,51.15
2022-10-22T08:59:23.726Z,51.02
2022-10-22T09:00:23.742Z,52.07
2022-10-22T09:01:23.715Z,52.97
2022-10-22T09:02:23.706Z,54.30
2022-10-22T09:03:23.692Z,51.93
2022-10-22T09:04:23.710Z,50.34
2022-10-22T09:05:23.682Z,51.08
2022-10-22T09:06:23.670Z,53.00
2022-10-22T09:07:23.671Z,53.08
2022-10-22T09:08:23.666Z,51.51
2022-10-22T09:09:23.671Z,51.60
2022-10-22T09:10:23.670Z,52.70
2022-10-22T09:11:23.648Z,50.51
2022-10-22T09:12:23.634Z,54.35
2022-10-22T09:13:23.817Z,51.38
2022-10-22T09:14:23.625Z,50.35
2022-10-22T09:15:23.636Z,50.29
2022-10-22T09:16:23.612Z,51.87
2022-10-22T09:17:23.604Z,50.39
2022-10-22T09:18:23.609Z,51.38
2022-10-22T09:19:23.617Z,54.34
2022-10-22T09:20:23.615Z,51.33
2022-10-22T09:21:23.583Z,50.57
2022-10-22T09:22:23.652Z,50.23
2022-10-22T09:23:23.668Z,50.50
2022-10-22T09:24:23.573Z,51.11
2022-10-22T09:25:23.986Z,52.94
2022-10-22T09:26:23.565Z,52.76
2022-10-22T09:27:23.564Z,51.46
2022-10-22T09:28:23.530Z,55.38
2022-10-22T09:29:23.538Z,53.81
2022-10-22T09:30:23.527Z,49.20
2022-10-22T09:31:23.512Z,51.05
2022-10-22T09:32:23.520Z,50.77
2022-10-22T09:33:24.721Z,50.62
2022-10-22T09:34:23.486Z,50.23
2022-10-22T09:35:23.539Z,49.87
2022-10-22T09:36:23.954Z,51.04
2022-10-22T09:37:23.487Z,52.98
2022-10-22T09:38:23.504Z,49.89
2022-10-22T09:39:23.462Z,48.11
2022-10-22T09:40:23.493Z,55.56
2022-10-22T09:41:23.448Z,50.21
2022-10-22T09:42:23.538Z,50.84
2022-10-22T09:43:23.429Z,53.34
2022-10-22T09:44:23.430Z,50.83
2022-10-22T09:45:23.432Z,51.10
2022-10-22T09:46:23.410Z,50.77
2022-10-22T09:47:25.996Z,53.36
2022-10-22T09:48:24.402Z,50.56
2022-10-22T09:49:23.403Z,51.87
2022-10-22T09:50:24.070Z,52.00
2022-10-22T09:51:23.378Z,51.87
2022-10-22T09:52:23.389Z,51.38
2022-10-22T09:53:23.383Z,51.85
2022-10-22T09:54:24.326Z,52.15
2022-10-22T09:55:23.352Z,52.59
2022-10-22T09:56:23.773Z,52.66
2022-10-22T09:57:23.335Z,52.65
2022-10-22T09:58:23.352Z,52.54
2022-10-22T09:59:23.389Z,51.38
2022-10-22T10:00:23.309Z,51.11
2022-10-22T10:01:23.316Z,51.14
2022-10-22T10:02:39.072Z,52.63
2022-10-22T10:03:24.343Z,51.58
2022-10-22T10:05:23.279Z,50.93
2022-10-22T10:06:23.274Z,51.00
2022-10-22T10:07:23.278Z,49.39
2022-10-22T10:08:23.280Z,51.12
2022-10-22T10:09:23.362Z,52.34
2022-10-22T10:10:23.255Z,51.55
2022-10-22T10:11:28.063Z,50.99
2022-10-22T10:12:24.226Z,51.01
2022-10-22T10:13:23.259Z,48.55
2022-10-22T10:14:23.808Z,50.82
2022-10-22T10:15:23.228Z,49.79
2022-10-22T10:16:23.203Z,49.23
2022-10-22T10:17:23.220Z,48.53
2022-10-22T10:18:23.189Z,50.21
2022-10-22T10:19:23.251Z,52.62
2022-10-22T10:20:23.172Z,51.67
2022-10-22T10:21:23.189Z,53.71
2022-10-22T10:22:23.181Z,49.82
2022-10-22T10:23:25.250Z,50.60
2022-10-22T10:24:23.168Z,50.31
2022-10-22T10:25:23.186Z,50.08
2022-10-22T10:26:23.133Z,50.21
2022-10-22T10:27:23.136Z,48.86
2022-10-22T10:28:23.133Z,48.37
2022-10-22T10:29:23.132Z,49.60
2022-10-22T10:30:23.151Z,51.59
2022-10-22T10:31:23.101Z,52.97
2022-10-22T10:32:24.515Z,66.75
2022-10-22T10:33:23.085Z,66.85
2022-10-22T10:34:23.071Z,67.72
2022-10-22T10:35:23.090Z,53.15
2022-10-22T10:36:23.140Z,52.00
2022-10-22T10:37:23.067Z,53.33
2022-10-22T10:38:25.912Z,52.26
2022-10-22T10:39:24.112Z,51.66
2022-10-22T10:40:23.034Z,50.99
2022-10-22T10:41:23.027Z,54.68
2022-10-22T10:42:23.028Z,58.25
2022-10-22T10:43:23.037Z,51.16
2022-10-22T10:44:23.302Z,49.51
2022-10-22T10:45:22.998Z,57.39
2022-10-22T10:46:23.041Z,49.54
2022-10-22T10:47:23.020Z,51.16
2022-10-22T10:48:22.986Z,63.35
2022-10-22T10:49:23.005Z,54.80
2022-10-22T10:50:22.980Z,49.83
2022-10-22T10:51:22.981Z,48.80
2022-10-22T10:52:22.959Z,49.25
2022-10-22T10:53:22.947Z,53.84
2022-10-22T10:54:22.941Z,65.62
2022-10-22T10:55:22.928Z,61.16
2022-10-22T10:56:22.991Z,64.54
2022-10-22T10:57:22.920Z,61.99
2022-10-22T10:58:22.910Z,64.76
2022-10-22T10:59:22.893Z,64.26
2022-10-22T11:00:22.900Z,53.02
2022-10-22T11:01:22.947Z,49.77
2022-10-22T11:02:22.916Z,51.45
2022-10-22T11:03:22.927Z,50.25
2022-10-22T11:04:22.860Z,50.26
2022-10-22T11:05:22.875Z,52.50
2022-10-22T11:06:25.433Z,49.42
2022-10-22T11:07:33.811Z,51.99
2022-10-22T11:08:23.839Z,50.01
2022-10-22T11:09:22.897Z,51.29
2022-10-22T11:10:22.818Z,49.68
2022-10-22T11:11:22.819Z,52.12
2022-10-22T11:12:22.804Z,51.18
2022-10-22T11:13:22.809Z,51.25
2022-10-22T11:14:25.223Z,50.08
2022-10-22T11:15:23.806Z,49.81
2022-10-22T11:16:22.776Z,48.20
2022-10-22T11:17:22.809Z,48.96
2022-10-22T11:18:22.804Z,47.57
2022-10-22T11:20:22.793Z,46.91
2022-10-22T11:21:22.744Z,51.51
2022-10-22T11:22:26.618Z,46.70
2022-10-22T11:23:23.486Z,49.14
2022-10-22T11:24:22.735Z,49.50
2022-10-22T11:25:22.709Z,50.97
2022-10-22T11:26:22.714Z,47.40
2022-10-22T11:27:22.829Z,49.09
2022-10-22T11:28:22.702Z,45.42
2022-10-22T11:29:22.687Z,51.19
2022-10-22T11:30:22.678Z,48.05
2022-10-22T11:31:22.807Z,53.68
2022-10-22T11:32:22.717Z,49.72
2022-10-22T11:33:22.701Z,47.95
2022-10-22T11:34:33.742Z,46.39
2022-10-22T11:35:25.900Z,46.94
2022-10-22T11:36:22.788Z,47.35
2022-10-22T11:37:22.631Z,48.10
2022-10-22T11:38:22.649Z,49.31
2022-10-22T11:39:22.611Z,51.60
2022-10-22T11:40:22.601Z,48.33
2022-10-22T11:41:22.622Z,47.39
2022-10-22T11:42:24.149Z,46.27
2022-10-22T11:43:22.589Z,50.33
2022-10-22T11:44:22.585Z,51.03
2022-10-22T11:45:22.588Z,49.89
2022-10-22T11:46:22.559Z,48.94
2022-10-22T11:47:23.202Z,49.17
2022-10-22T11:48:22.554Z,54.04
2022-10-22T11:49:22.546Z,52.15
2022-10-22T11:50:22.559Z,51.43
2022-10-22T11:51:22.533Z,51.87
2022-10-22T11:52:22.541Z,51.88
2022-10-22T11:53:22.515Z,51.70
2022-10-22T11:54:22.534Z,52.44
2022-10-22T11:55:22.566Z,51.01
2022-10-22T11:56:43.504Z,50.73
2022-10-22T11:57:22.505Z,51.43
2022-10-22T11:58:22.479Z,49.83
2022-10-22T11:59:22.495Z,49.71
2022-10-22T12:00:22.472Z,51.40
2022-10-22T12:01:22.563Z,51.16
2022-10-22T12:02:22.464Z,52.58
2022-10-22T12:03:22.453Z,51.77
2022-10-22T12:04:22.522Z,50.35
2022-10-22T12:05:22.432Z,49.99
2022-10-22T12:06:22.480Z,50.88
2022-10-22T12:07:22.417Z,49.67
2022-10-22T12:08:22.422Z,49.30
2022-10-22T12:09:22.427Z,50.54
2022-10-22T12:10:22.435Z,54.23
2022-10-22T12:11:22.469Z,50.92
2022-10-22T12:12:22.381Z,50.16
2022-10-22T12:13:22.376Z,49.93
2022-10-22T12:14:22.377Z,53.30
2022-10-22T12:15:22.368Z,48.32
2022-10-22T12:16:32.122Z,49.92
2022-10-22T12:17:23.361Z,49.43
2022-10-22T12:18:22.455Z,49.44
2022-10-22T12:19:22.347Z,48.68
2022-10-22T12:20:22.334Z,48.83
2022-10-22T12:21:22.419Z,54.93
2022-10-22T12:22:22.344Z,51.18
2022-10-22T12:23:22.312Z,48.81
2022-10-22T12:24:22.304Z,48.58
2022-10-22T12:25:22.300Z,53.14
2022-10-22T12:26:22.350Z,57.23
2022-10-22T12:27:22.994Z,49.49
2022-10-22T12:28:22.291Z,48.82
2022-10-22T12:29:22.271Z,49.39
2022-10-22T12:30:22.340Z,51.00
2022-10-22T12:31:22.263Z,48.58
2022-10-22T12:32:22.276Z,48.86
2022-10-22T12:33:22.235Z,49.64
2022-10-22T12:34:22.244Z,48.39
2022-10-22T12:35:22.244Z,47.95
2022-10-22T12:36:22.235Z,48.62
2022-10-22T12:37:22.209Z,48.27
2022-10-22T12:38:22.245Z,47.28
2022-10-22T12:39:22.235Z,48.37
2022-10-22T12:40:22.247Z,47.78
2022-10-22T12:41:22.341Z,51.86
2022-10-22T12:42:22.172Z,48.00
2022-10-22T12:43:22.214Z,48.58
2022-10-22T12:44:22.163Z,48.49
2022-10-22T12:45:22.186Z,47.71
2022-10-22T12:46:22.168Z,48.76
2022-10-22T12:47:22.144Z,48.63
2022-10-22T12:48:23.116Z,47.68
2022-10-22T12:49:22.132Z,45.73
2022-10-22T12:50:22.148Z,44.85
2022-10-22T12:51:22.175Z,47.97
2022-10-22T12:52:22.461Z,48.31
2022-10-22T12:53:22.153Z,56.17
2022-10-22T12:54:22.113Z,50.06
2022-10-22T12:55:22.092Z,52.70
2022-10-22T12:56:22.098Z,47.48
2022-10-22T12:57:22.238Z,59.56